Time;durP1;ratioP1;P1;durP2;ratioP2;P2;SDS_P1;SDS_P2;PMS_P1;PMS_P2;Temp;Humidity;BMP_temperature;BMP_pressure;BME280_temperature;BME280_humidity;BME280_pressure;Samples;Min_cycle;Max_cycle;Signal;HPM_P1;HPM_P2
2023/07/10 00:00:54;;;;;;;5.13;2.28;;;;;;;;;;5088374;27;20053;-60
2023/07/10 00:03:20;;;;;;;3.15;2.45;;;;;;;;;;5088580;27;20158;-60
2023/07/10 00:05:46;;;;;;;5.55;2.10;;;;;;;;;;5088676;27;20047;-61
2023/07/10 00:08:12;;;;;;;3.53;2.47;;;;;;;;;;5089244;27;20119;-60
2023/07/10 00:10:38;;;;;;;5.43;2.03;;;;;;;;;;5088135;27;20417;-60
2023/07/10 00:13:04;;;;;;;5.25;2.00;;;;;;;;;;5088473;27;20055;-60
2023/07/10 00:15:30;;;;;;;2.92;1.95;;;;;;;;;;5088501;27;20516;-60
2023/07/10 00:17:56;;;;;;;4.25;2.00;;;;;;;;;;5088062;27;20149;-60
2023/07/10 00:20:27;;;;;;;4.53;2.40;;;;;;;;;;5087928;27;20052;-60
2023/07/10 00:22:54;;;;;;;3.75;2.03;;;;;;;;;;5088496;27;20123;-60
2023/07/10 00:25:20;;;;;;;5.15;2.42;;;;;;;;;;5088413;27;20539;-60
2023/07/10 00:27:47;;;;;;;5.40;2.58;;;;;;;;;;5084779;27;20046;-60
2023/07/10 00:30:20;;;;;;;4.72;2.05;;;;;;;;;;5093801;27;20055;-60
2023/07/10 00:32:47;;;;;;;2.97;1.90;;;;;;;;;;5087711;27;20079;-60
2023/07/10 00:35:16;;;;;;;4.72;2.53;;;;;;;;;;5087556;27;20068;-60
2023/07/10 00:37:43;;;;;;;4.57;2.00;;;;;;;;;;5091780;27;21955;-60
2023/07/10 00:40:22;;;;;;;3.40;1.85;;;;;;;;;;5091399;27;20051;-60
2023/07/10 00:42:53;;;;;;;3.33;1.98;;;;;;;;;;5089568;27;20048;-60
2023/07/10 00:45:19;;;;;;;4.05;2.72;;;;;;;;;;5089975;27;20408;-60
2023/07/10 00:47:51;;;;;;;3.20;1.67;;;;;;;;;;5089520;27;20059;-60
2023/07/10 00:50:21;;;;;;;4.78;2.00;;;;;;;;;;5088887;27;20040;-60
2023/07/10 00:52:48;;;;;;;4.30;2.25;;;;;;;;;;5090701;27;20040;-60
2023/07/10 00:55:23;;;;;;;4.47;2.05;;;;;;;;;;5095485;27;20515;-60
2023/07/10 00:57:53;;;;;;;3.80;2.70;;;;;;;;;;5090903;27;20049;-60
2023/07/10 01:00:22;;;;;;;5.05;2.63;;;;;;;;;;5090424;27;20040;-60
2023/07/10 01:02:48;;;;;;;7.70;4.03;;;;;;;;;;5089924;27;20068;-60
2023/07/10 01:05:15;;;;;;;5.05;2.58;;;;;;;;;;5091231;27;20098;-60
2023/07/10 01:08:01;;;;;;;4.88;2.25;;;;;;;;;;5090232;27;20036;-60
2023/07/10 01:10:28;;;;;;;2.95;2.00;;;;;;;;;;5095533;27;20412;-60
2023/07/10 01:12:54;;;;;;;5.88;1.98;;;;;;;;;;5091066;27;20048;-60
2023/07/10 01:15:20;;;;;;;4.50;1.60;;;;;;;;;;5091086;27;20036;-60
2023/07/10 01:17:47;;;;;;;5.28;2.75;;;;;;;;;;5091430;27;20036;-60
2023/07/10 01:20:19;;;;;;;4.05;2.42;;;;;;;;;;5091262;27;20185;-60
2023/07/10 01:22:45;;;;;;;2.22;1.45;;;;;;;;;;5090309;27;20036;-60
2023/07/10 01:25:11;;;;;;;4.72;2.35;;;;;;;;;;5091871;27;20036;-60
2023/07/10 01:27:38;;;;;;;3.85;2.60;;;;;;;;;;5090929;27;20559;-60
2023/07/10 01:30:06;;;;;;;4.07;2.22;;;;;;;;;;5091389;27;20047;-60
2023/07/10 01:32:33;;;;;;;4.63;2.03;;;;;;;;;;5090253;27;20043;-60
2023/07/10 01:35:02;;;;;;;6.10;2.50;;;;;;;;;;5090838;27;20048;-60
2023/07/10 01:37:28;;;;;;;6.28;2.38;;;;;;;;;;5090905;27;20041;-60
2023/07/10 01:39:54;;;;;;;3.45;2.08;;;;;;;;;;5090383;27;20040;-60
2023/07/10 01:42:20;;;;;;;4.13;2.60;;;;;;;;;;5090341;27;20633;-60
2023/07/10 01:44:48;;;;;;;5.97;2.40;;;;;;;;;;5089831;27;20044;-60
2023/07/10 01:47:15;;;;;;;5.32;2.63;;;;;;;;;;5088588;27;20103;-60
2023/07/10 01:49:43;;;;;;;4.25;1.98;;;;;;;;;;5090429;27;20067;-60
2023/07/10 01:52:10;;;;;;;5.72;2.60;;;;;;;;;;5090811;27;20539;-59
2023/07/10 01:54:37;;;;;;;5.35;2.70;;;;;;;;;;5093617;27;20032;-60
2023/07/10 01:57:03;;;;;;;5.70;2.13;;;;;;;;;;5089655;27;20037;-60
2023/07/10 01:59:29;;;;;;;3.97;1.90;;;;;;;;;;5089182;27;20048;-60
2023/07/10 02:01:55;;;;;;;2.80;1.65;;;;;;;;;;5087556;27;20047;-60
2023/07/10 02:04:22;;;;;;;5.18;2.42;;;;;;;;;;5090016;27;20115;-60
2023/07/10 02:06:48;;;;;;;4.25;2.70;;;;;;;;;;5088712;27;20098;-60
2023/07/10 02:09:14;;;;;;;5.63;2.22;;;;;;;;;;5088778;27;20079;-60
2023/07/10 02:11:40;;;;;;;4.53;2.10;;;;;;;;;;5090614;27;20044;-59
2023/07/10 02:14:08;;;;;;;4.22;2.33;;;;;;;;;;5089490;27;20124;-60
2023/07/10 02:16:34;;;;;;;5.53;2.00;;;;;;;;;;5089590;27;20040;-60
2023/07/10 02:19:00;;;;;;;7.72;2.28;;;;;;;;;;5088276;27;20036;-60
2023/07/10 02:21:26;;;;;;;5.82;2.40;;;;;;;;;;5090428;27;20032;-60
2023/07/10 02:23:52;;;;;;;5.15;2.45;;;;;;;;;;5085591;27;20076;-60
2023/07/10 02:26:19;;;;;;;3.92;2.13;;;;;;;;;;5088955;27;20085;-60
2023/07/10 02:28:45;;;;;;;4.75;2.22;;;;;;;;;;5088911;27;20051;-60
2023/07/10 02:31:11;;;;;;;5.68;2.13;;;;;;;;;;5088761;27;20040;-61
2023/07/10 02:33:38;;;;;;;5.68;3.08;;;;;;;;;;5089121;27;20658;-60
2023/07/10 02:36:04;;;;;;;10.07;2.28;;;;;;;;;;5089652;27;20127;-60
2023/07/10 02:38:30;;;;;;;6.43;2.33;;;;;;;;;;5088379;27;20083;-60
2023/07/10 02:40:57;;;;;;;6.15;2.30;;;;;;;;;;5088677;27;20040;-60
2023/07/10 02:43:23;;;;;;;5.05;2.40;;;;;;;;;;5082351;28;20040;-60
2023/07/10 02:45:49;;;;;;;5.32;2.67;;;;;;;;;;5088767;27;20072;-60
2023/07/10 02:48:15;;;;;;;5.95;2.22;;;;;;;;;;5087349;27;20499;-60
2023/07/10 02:50:42;;;;;;;4.75;2.20;;;;;;;;;;5088967;27;20044;-60
2023/07/10 02:53:08;;;;;;;4.97;2.22;;;;;;;;;;5089954;27;20047;-60
2023/07/10 02:55:34;;;;;;;4.93;2.05;;;;;;;;;;5089916;27;20036;-60
2023/07/10 02:58:00;;;;;;;7.20;2.40;;;;;;;;;;5086919;27;20899;-60
2023/07/10 03:00:27;;;;;;;5.57;2.15;;;;;;;;;;5088980;27;20040;-60
2023/07/10 03:02:54;;;;;;;5.95;2.50;;;;;;;;;;5088468;27;20039;-60
2023/07/10 03:05:20;;;;;;;6.28;2.13;;;;;;;;;;5088938;27;20508;-60
2023/07/10 03:07:46;;;;;;;3.58;1.80;;;;;;;;;;5088729;27;20574;-60
2023/07/10 03:10:12;;;;;;;9.63;2.10;;;;;;;;;;5089025;27;20110;-60
2023/07/10 03:12:38;;;;;;;6.72;2.00;;;;;;;;;;5087502;27;20649;-60
2023/07/10 03:15:05;;;;;;;4.47;2.53;;;;;;;;;;5089420;27;20048;-60
2023/07/10 03:17:32;;;;;;;6.35;1.92;;;;;;;;;;5071521;28;20266;-60
2023/07/10 03:19:58;;;;;;;7.60;2.17;;;;;;;;;;5071839;27;20050;-60
2023/07/10 03:22:24;;;;;;;4.30;1.80;;;;;;;;;;5089058;27;20036;-61
2023/07/10 03:24:53;;;;;;;4.50;1.88;;;;;;;;;;5088272;27;20092;-60
2023/07/10 03:27:20;;;;;;;3.83;2.05;;;;;;;;;;5089036;27;20045;-61
2023/07/10 03:29:46;;;;;;;4.45;1.95;;;;;;;;;;5088709;27;20044;-60
2023/07/10 03:32:12;;;;;;;4.57;2.00;;;;;;;;;;5089661;27;20046;-60
2023/07/10 03:34:38;;;;;;;5.95;2.47;;;;;;;;;;5088962;27;20045;-61
2023/07/10 03:37:04;;;;;;;4.00;2.13;;;;;;;;;;5089092;27;20096;-60
2023/07/10 03:39:30;;;;;;;8.38;2.50;;;;;;;;;;5088745;27;20566;-61
2023/07/10 03:41:56;;;;;;;5.50;2.10;;;;;;;;;;5088350;27;20047;-60
2023/07/10 03:44:22;;;;;;;6.13;2.25;;;;;;;;;;5087991;27;20052;-60
2023/07/10 03:46:49;;;;;;;6.72;2.45;;;;;;;;;;5088438;27;20078;-60
2023/07/10 03:49:15;;;;;;;6.20;1.95;;;;;;;;;;5088083;27;20088;-60
2023/07/10 03:51:41;;;;;;;3.97;2.03;;;;;;;;;;5089607;27;20151;-60
2023/07/10 03:54:10;;;;;;;5.53;2.22;;;;;;;;;;5089822;27;20127;-60
2023/07/10 03:56:36;;;;;;;8.63;2.10;;;;;;;;;;5088765;27;20074;-61
2023/07/10 03:59:03;;;;;;;8.63;2.00;;;;;;;;;;5083987;27;20670;-60
2023/07/10 04:01:29;;;;;;;4.15;1.60;;;;;;;;;;5088414;27;20072;-60
2023/07/10 04:03:55;;;;;;;7.13;3.08;;;;;;;;;;5087015;27;20594;-61
2023/07/10 04:06:21;;;;;;;6.60;2.25;;;;;;;;;;5089002;27;20361;-60
2023/07/10 04:08:47;;;;;;;8.90;2.20;;;;;;;;;;5089596;27;20145;-60
2023/07/10 04:11:15;;;;;;;4.97;2.17;;;;;;;;;;5092718;27;20087;-61
2023/07/10 04:13:41;;;;;;;9.93;2.75;;;;;;;;;;5091530;27;20092;-60
2023/07/10 04:16:11;;;;;;;11.43;3.22;;;;;;;;;;5092372;27;20094;-60
2023/07/10 04:18:38;;;;;;;9.50;2.20;;;;;;;;;;5091357;27;20096;-60
2023/07/10 04:21:18;;;;;;;8.27;2.15;;;;;;;;;;5091852;27;20118;-60
2023/07/10 04:23:45;;;;;;;5.95;2.38;;;;;;;;;;5091496;27;20124;-61
2023/07/10 04:26:15;;;;;;;4.82;1.90;;;;;;;;;;5091631;27;20048;-60
2023/07/10 04:28:41;;;;;;;5.78;2.78;;;;;;;;;;5090925;27;20468;-61
2023/07/10 04:31:07;;;;;;;5.80;2.20;;;;;;;;;;5091828;27;20554;-60
2023/07/10 04:33:34;;;;;;;8.07;2.80;;;;;;;;;;5089806;27;20044;-60
2023/07/10 04:36:00;;;;;;;7.25;1.95;;;;;;;;;;5091376;27;20133;-60
2023/07/10 04:38:27;;;;;;;5.93;2.40;;;;;;;;;;5090519;27;20036;-61
2023/07/10 04:40:57;;;;;;;4.75;2.10;;;;;;;;;;5091936;27;20044;-60
2023/07/10 04:43:24;;;;;;;5.70;3.03;;;;;;;;;;5078592;28;20044;-60
2023/07/10 04:45:50;;;;;;;5.75;2.53;;;;;;;;;;5090351;27;20036;-60
2023/07/10 04:48:16;;;;;;;4.78;2.45;;;;;;;;;;5089928;27;20517;-60
2023/07/10 04:50:47;;;;;;;4.43;1.90;;;;;;;;;;5085964;27;20036;-60
2023/07/10 04:53:13;;;;;;;7.28;3.50;;;;;;;;;;5090868;27;20928;-60
2023/07/10 04:55:39;;;;;;;7.97;2.45;;;;;;;;;;5091386;27;20578;-60
2023/07/10 04:58:05;;;;;;;7.70;2.20;;;;;;;;;;5089929;27;20506;-60
2023/07/10 05:00:31;;;;;;;10.20;3.17;;;;;;;;;;5090320;27;20110;-60
2023/07/10 05:02:58;;;;;;;5.57;1.90;;;;;;;;;;5089512;27;20040;-61
2023/07/10 05:05:24;;;;;;;13.45;2.63;;;;;;;;;;5088859;27;20040;-60
2023/07/10 05:07:50;;;;;;;5.38;2.70;;;;;;;;;;5090530;28;20748;-61
2023/07/10 05:10:16;;;;;;;7.20;2.75;;;;;;;;;;5085825;27;21419;-60
2023/07/10 05:12:42;;;;;;;9.32;2.38;;;;;;;;;;5091288;27;20037;-60
2023/07/10 05:15:08;;;;;;;5.28;2.10;;;;;;;;;;5090997;27;20044;-60
2023/07/10 05:17:34;;;;;;;9.20;2.35;;;;;;;;;;5090498;27;20044;-60
2023/07/10 05:20:00;;;;;;;9.15;2.35;;;;;;;;;;5096008;27;20041;-61
2023/07/10 05:22:26;;;;;;;6.40;2.88;;;;;;;;;;5095896;27;20040;-61
2023/07/10 05:24:52;;;;;;;8.88;1.98;;;;;;;;;;5087042;28;20048;-60
2023/07/10 05:27:18;;;;;;;4.85;2.20;;;;;;;;;;5087451;27;20503;-60
2023/07/10 05:29:45;;;;;;;10.00;2.50;;;;;;;;;;5088582;27;20044;-60
2023/07/10 05:32:11;;;;;;;13.25;2.63;;;;;;;;;;5090504;27;20052;-60
2023/07/10 05:34:37;;;;;;;8.48;2.67;;;;;;;;;;5090926;27;20072;-62
2023/07/10 05:37:03;;;;;;;7.40;2.22;;;;;;;;;;5090732;27;20040;-60
2023/07/10 05:39:30;;;;;;;13.15;3.20;;;;;;;;;;5087951;27;20523;-61
2023/07/10 05:41:56;;;;;;;9.23;3.03;;;;;;;;;;5090434;27;20036;-60
2023/07/10 05:44:22;;;;;;;7.00;2.10;;;;;;;;;;5090635;27;20122;-60
2023/07/10 05:46:48;;;;;;;7.50;2.58;;;;;;;;;;5090082;27;20055;-60
2023/07/10 05:49:14;;;;;;;8.50;2.80;;;;;;;;;;5090558;27;20520;-61
2023/07/10 05:51:40;;;;;;;4.88;2.38;;;;;;;;;;5091490;27;20047;-60
2023/07/10 05:54:06;;;;;;;7.20;2.55;;;;;;;;;;5089852;27;20474;-60
2023/07/10 05:56:32;;;;;;;7.43;2.88;;;;;;;;;;5090125;27;20051;-60
2023/07/10 05:58:59;;;;;;;6.35;2.60;;;;;;;;;;5089197;27;20521;-60
2023/07/10 06:01:25;;;;;;;6.93;2.30;;;;;;;;;;5089658;27;20070;-61
2023/07/10 06:03:51;;;;;;;14.65;2.58;;;;;;;;;;5089835;27;20079;-60
2023/07/10 06:06:17;;;;;;;12.20;2.70;;;;;;;;;;5090150;27;20045;-59
2023/07/10 06:08:43;;;;;;;13.82;3.03;;;;;;;;;;5085595;27;20032;-61
2023/07/10 06:11:09;;;;;;;9.98;3.38;;;;;;;;;;5089853;27;20515;-61
2023/07/10 06:13:35;;;;;;;15.45;3.90;;;;;;;;;;5089851;27;20040;-60
2023/07/10 06:16:05;;;;;;;16.77;3.45;;;;;;;;;;5089137;27;20420;-60
2023/07/10 06:18:31;;;;;;;14.93;4.15;;;;;;;;;;5089501;27;20477;-60
2023/07/10 06:20:58;;;;;;;11.38;3.25;;;;;;;;;;5090144;27;20040;-61
2023/07/10 06:23:25;;;;;;;10.63;2.65;;;;;;;;;;5087888;27;20472;-60
2023/07/10 06:25:52;;;;;;;9.75;3.00;;;;;;;;;;5088566;27;20094;-60
2023/07/10 06:28:18;;;;;;;9.65;2.75;;;;;;;;;;5088685;27;20041;-60
2023/07/10 06:30:47;;;;;;;13.63;3.53;;;;;;;;;;5087574;27;20040;-61
2023/07/10 06:33:13;;;;;;;11.52;3.08;;;;;;;;;;5088212;27;20052;-60
2023/07/10 06:35:39;;;;;;;7.30;3.15;;;;;;;;;;5089178;27;20044;-60
2023/07/10 06:38:05;;;;;;;11.43;2.75;;;;;;;;;;5088186;27;20089;-60
2023/07/10 06:40:31;;;;;;;14.05;2.65;;;;;;;;;;5090684;27;20346;-60
2023/07/10 06:42:57;;;;;;;7.60;2.20;;;;;;;;;;5090447;27;20056;-60
2023/07/10 06:45:23;;;;;;;10.00;3.10;;;;;;;;;;5087765;27;20040;-60
2023/07/10 06:47:51;;;;;;;13.35;3.80;;;;;;;;;;5089222;27;20780;-60
2023/07/10 06:50:17;;;;;;;11.30;2.30;;;;;;;;;;5089729;27;20040;-61
2023/07/10 06:52:44;;;;;;;4.60;2.03;;;;;;;;;;5086881;27;20043;-60
2023/07/10 06:55:16;;;;;;;6.55;2.60;;;;;;;;;;5086446;27;20813;-60
2023/07/10 06:57:42;;;;;;;15.48;3.17;;;;;;;;;;5086112;27;20040;-60
2023/07/10 07:00:10;;;;;;;10.15;3.05;;;;;;;;;;5088286;27;20072;-60
2023/07/10 07:02:36;;;;;;;7.13;2.38;;;;;;;;;;5089183;27;20133;-60
2023/07/10 07:05:03;;;;;;;11.68;2.30;;;;;;;;;;5090108;27;20554;-60
2023/07/10 07:07:29;;;;;;;10.77;2.63;;;;;;;;;;5090654;27;20075;-60
2023/07/10 07:09:55;;;;;;;9.00;2.20;;;;;;;;;;5089589;27;20036;-60
2023/07/10 07:12:21;;;;;;;7.15;2.60;;;;;;;;;;5089316;27;21074;-61
2023/07/10 07:14:47;;;;;;;9.15;3.88;;;;;;;;;;5089581;27;20070;-60
2023/07/10 07:17:14;;;;;;;10.02;4.03;;;;;;;;;;5078605;28;20046;-61
2023/07/10 07:19:41;;;;;;;8.05;2.50;;;;;;;;;;5089976;27;20047;-60
2023/07/10 07:22:07;;;;;;;5.97;1.95;;;;;;;;;;5090830;27;20054;-60
2023/07/10 07:24:34;;;;;;;4.82;2.17;;;;;;;;;;5089522;27;20588;-60
2023/07/10 07:27:00;;;;;;;10.50;2.30;;;;;;;;;;5089754;27;20522;-60
2023/07/10 07:29:27;;;;;;;10.48;2.55;;;;;;;;;;5089766;27;20032;-60
2023/07/10 07:31:53;;;;;;;8.43;2.72;;;;;;;;;;5087801;27;20494;-60
2023/07/10 07:34:19;;;;;;;6.93;2.67;;;;;;;;;;5089713;27;20492;-60
2023/07/10 07:36:45;;;;;;;7.07;2.28;;;;;;;;;;5089962;27;20512;-60
2023/07/10 07:39:12;;;;;;;9.35;3.10;;;;;;;;;;5090108;27;20032;-60
2023/07/10 07:41:38;;;;;;;15.65;2.25;;;;;;;;;;5088570;27;20094;-60
2023/07/10 07:44:04;;;;;;;7.28;2.40;;;;;;;;;;5089023;27;20087;-60
2023/07/10 07:46:30;;;;;;;9.45;2.00;;;;;;;;;;5089638;27;20587;-60
2023/07/10 07:48:56;;;;;;;6.07;2.10;;;;;;;;;;5089528;27;20040;-60
2023/07/10 07:51:22;;;;;;;6.75;2.30;;;;;;;;;;5090615;27;20044;-60
2023/07/10 07:53:48;;;;;;;6.25;2.40;;;;;;;;;;5094757;27;20066;-60
2023/07/10 07:56:14;;;;;;;9.73;2.35;;;;;;;;;;5089703;27;20071;-60
2023/07/10 07:58:40;;;;;;;5.70;1.90;;;;;;;;;;5089432;27;20064;-60
2023/07/10 08:01:07;;;;;;;7.68;2.28;;;;;;;;;;5087239;27;20762;-61
2023/07/10 08:03:33;;;;;;;7.90;2.30;;;;;;;;;;5090759;27;20036;-60
2023/07/10 08:05:59;;;;;;;7.72;2.25;;;;;;;;;;5090064;27;20055;-60
2023/07/10 08:08:25;;;;;;;6.00;2.33;;;;;;;;;;5078192;27;20093;-60
2023/07/10 08:10:54;;;;;;;6.50;2.10;;;;;;;;;;5088893;27;20051;-60
2023/07/10 08:13:20;;;;;;;8.98;3.08;;;;;;;;;;5089131;27;20574;-60
2023/07/10 08:15:47;;;;;;;10.77;2.53;;;;;;;;;;5089379;27;20064;-60
2023/07/10 08:18:13;;;;;;;14.02;3.13;;;;;;;;;;5089655;27;20711;-60
2023/07/10 08:20:39;;;;;;;6.95;1.90;;;;;;;;;;5090115;27;20144;-60
2023/07/10 08:23:05;;;;;;;5.43;1.95;;;;;;;;;;5088973;27;20044;-61
2023/07/10 08:25:32;;;;;;;5.47;1.92;;;;;;;;;;5089061;27;20127;-61
2023/07/10 08:27:58;;;;;;;7.80;2.25;;;;;;;;;;5087133;27;20629;-60
2023/07/10 08:30:24;;;;;;;7.15;1.77;;;;;;;;;;5087958;27;20079;-60
2023/07/10 08:32:51;;;;;;;7.07;1.75;;;;;;;;;;5087376;27;20040;-60
2023/07/10 08:35:17;;;;;;;6.28;1.65;;;;;;;;;;5089532;27;20546;-60
2023/07/10 08:37:43;;;;;;;6.13;1.63;;;;;;;;;;5088950;27;20510;-60
2023/07/10 08:40:15;;;;;;;7.50;1.90;;;;;;;;;;5089037;27;20036;-61
2023/07/10 08:42:41;;;;;;;5.10;1.65;;;;;;;;;;5088276;27;20040;-61
2023/07/10 08:45:18;;;;;;;4.00;1.30;;;;;;;;;;5089513;27;20075;-61
2023/07/10 08:47:47;;;;;;;4.72;2.40;;;;;;;;;;5087410;27;20051;-61
2023/07/10 08:50:17;;;;;;;6.70;2.40;;;;;;;;;;5088128;27;20072;-60
2023/07/10 08:52:43;;;;;;;7.28;1.92;;;;;;;;;;5088585;27;20040;-60
2023/07/10 08:55:11;;;;;;;4.65;1.90;;;;;;;;;;5090547;27;20071;-60
2023/07/10 08:57:39;;;;;;;3.83;1.58;;;;;;;;;;5091903;27;20044;-60
2023/07/10 09:00:13;;;;;;;7.68;2.17;;;;;;;;;;5097355;27;20040;-60
2023/07/10 09:03:03;;;;;;;5.68;1.60;;;;;;;;;;5092456;27;20448;-60
2023/07/10 09:05:30;;;;;;;5.45;1.65;;;;;;;;;;5092226;27;20035;-60
2023/07/10 09:07:59;;;;;;;6.47;2.80;;;;;;;;;;5091611;27;20435;-61
2023/07/10 09:10:27;;;;;;;7.07;2.08;;;;;;;;;;5091745;27;20059;-60
2023/07/10 09:12:55;;;;;;;7.93;2.20;;;;;;;;;;5091883;27;20552;-60
2023/07/10 09:15:35;;;;;;;4.25;1.50;;;;;;;;;;5091482;27;20072;-61
2023/07/10 09:18:19;;;;;;;6.63;1.35;;;;;;;;;;5092455;27;20591;-61
2023/07/10 09:20:46;;;;;;;2.25;1.38;;;;;;;;;;5080627;28;20055;-60
2023/07/10 09:23:33;;;;;;;5.88;1.90;;;;;;;;;;5092091;27;20070;-61
2023/07/10 09:26:19;;;;;;;5.70;1.55;;;;;;;;;;5096803;27;20044;-60
2023/07/10 09:28:59;;;;;;;5.05;1.77;;;;;;;;;;5090498;27;20039;-61
2023/07/10 09:31:33;;;;;;;5.43;1.83;;;;;;;;;;5091359;27;20033;-61
2023/07/10 09:34:00;;;;;;;6.80;1.90;;;;;;;;;;5092020;27;20127;-60
2023/07/10 09:36:26;;;;;;;3.85;1.95;;;;;;;;;;5092048;27;20549;-61
2023/07/10 09:38:53;;;;;;;7.38;1.38;;;;;;;;;;5092026;27;20541;-61
2023/07/10 09:41:23;;;;;;;2.65;1.30;;;;;;;;;;5079681;27;20044;-61
2023/07/10 09:44:00;;;;;;;7.00;1.30;;;;;;;;;;5079748;28;20044;-61
2023/07/10 09:46:28;;;;;;;5.57;1.55;;;;;;;;;;5089389;27;20176;-60
2023/07/10 09:48:55;;;;;;;4.93;1.40;;;;;;;;;;5091832;27;20043;-60
2023/07/10 09:51:22;;;;;;;4.38;1.30;;;;;;;;;;5089797;27;20120;-60
2023/07/10 09:53:54;;;;;;;6.97;1.73;;;;;;;;;;5079146;28;20558;-61
2023/07/10 09:56:25;;;;;;;4.57;1.70;;;;;;;;;;5090245;27;20119;-60
2023/07/10 09:58:54;;;;;;;4.07;1.27;;;;;;;;;;5089870;27;20040;-61
2023/07/10 10:01:23;;;;;;;5.68;1.85;;;;;;;;;;5090642;27;20390;-61
2023/07/10 10:03:51;;;;;;;3.47;1.20;;;;;;;;;;5091301;27;20048;-61
2023/07/10 10:06:28;;;;;;;4.07;1.67;;;;;;;;;;5091114;27;20043;-60
2023/07/10 10:08:54;;;;;;;3.53;1.42;;;;;;;;;;5073593;27;20044;-61
2023/07/10 10:11:39;;;;;;;7.20;2.10;;;;;;;;;;5091237;27;20575;-61
2023/07/10 10:14:06;;;;;;;7.57;1.52;;;;;;;;;;5089471;27;20043;-60
2023/07/10 10:16:44;;;;;;;3.55;1.80;;;;;;;;;;5092057;27;20661;-61
2023/07/10 10:19:17;;;;;;;2.38;1.20;;;;;;;;;;5091663;27;20040;-61
2023/07/10 10:21:43;;;;;;;4.03;1.42;;;;;;;;;;5090837;27;20246;-60
2023/07/10 10:24:13;;;;;;;7.00;1.80;;;;;;;;;;5091129;27;20651;-60
2023/07/10 10:26:39;;;;;;;3.95;1.38;;;;;;;;;;5091033;27;20043;-60
2023/07/10 10:29:05;;;;;;;6.75;1.80;;;;;;;;;;5090848;27;20550;-60
2023/07/10 10:31:35;;;;;;;4.78;2.13;;;;;;;;;;5090141;27;20054;-61
2023/07/10 10:34:21;;;;;;;4.78;1.10;;;;;;;;;;5091078;27;20043;-60
2023/07/10 10:36:54;;;;;;;4.68;1.10;;;;;;;;;;5090493;27;20070;-61
2023/07/10 10:39:23;;;;;;;5.32;1.55;;;;;;;;;;5089399;27;20541;-60
2023/07/10 10:41:50;;;;;;;5.95;1.15;;;;;;;;;;5090466;27;20135;-61
2023/07/10 10:44:16;;;;;;;6.30;1.45;;;;;;;;;;5090830;27;20051;-61
2023/07/10 10:47:11;;;;;;;5.28;2.25;;;;;;;;;;5090507;27;20040;-60
2023/07/10 10:49:52;;;;;;;4.88;2.10;;;;;;;;;;5076430;27;20058;-61
2023/07/10 10:52:29;;;;;;;6.07;2.08;;;;;;;;;;5090421;27;20180;-61
2023/07/10 10:55:19;;;;;;;7.70;1.60;;;;;;;;;;5090568;27;20044;-61
2023/07/10 10:58:04;;;;;;;4.53;1.60;;;;;;;;;;5089737;27;20040;-61
2023/07/10 11:00:38;;;;;;;5.45;1.63;;;;;;;;;;5090430;27;20572;-61
2023/07/10 11:03:13;;;;;;;6.15;1.65;;;;;;;;;;5091019;27;20055;-61
2023/07/10 11:05:50;;;;;;;2.53;1.08;;;;;;;;;;5090850;27;20040;-61
2023/07/10 11:08:21;;;;;;;3.58;1.50;;;;;;;;;;5090301;27;20091;-61
2023/07/10 11:10:48;;;;;;;2.65;1.42;;;;;;;;;;5090171;27;20547;-61
2023/07/10 11:13:34;;;;;;;4.13;1.77;;;;;;;;;;5089512;27;20079;-60
2023/07/10 11:16:01;;;;;;;4.63;1.20;;;;;;;;;;5090565;27;20127;-61
2023/07/10 11:18:27;;;;;;;2.15;1.10;;;;;;;;;;5089925;27;20040;-60
2023/07/10 11:20:54;;;;;;;6.18;1.30;;;;;;;;;;5090418;27;20040;-61
2023/07/10 11:23:39;;;;;;;2.55;1.40;;;;;;;;;;5079104;28;20044;-61
2023/07/10 11:26:09;;;;;;;3.22;1.17;;;;;;;;;;5090110;27;20067;-61
2023/07/10 11:28:35;;;;;;;4.90;1.42;;;;;;;;;;5090080;27;20070;-61
2023/07/10 11:31:31;;;;;;;2.70;1.17;;;;;;;;;;5090104;27;20048;-60
2023/07/10 11:34:06;;;;;;;4.30;1.83;;;;;;;;;;5067216;28;20628;-61
2023/07/10 11:36:32;;;;;;;3.55;1.58;;;;;;;;;;5089164;27;20048;-60
2023/07/10 11:39:11;;;;;;;1.42;1.20;;;;;;;;;;5089638;27;20118;-61
2023/07/10 11:41:40;;;;;;;7.72;1.17;;;;;;;;;;5089984;27;20048;-61
2023/07/10 11:44:12;;;;;;;2.55;0.82;;;;;;;;;;5093610;27;20044;-61
2023/07/10 11:46:54;;;;;;;5.63;1.35;;;;;;;;;;5087950;27;20040;-61
2023/07/10 11:49:20;;;;;;;2.60;0.93;;;;;;;;;;5087849;27;20036;-61
2023/07/10 11:52:05;;;;;;;3.15;1.70;;;;;;;;;;5088886;27;20032;-61
2023/07/10 11:54:35;;;;;;;4.10;1.45;;;;;;;;;;5090107;27;20049;-61
2023/07/10 11:57:07;;;;;;;4.40;1.10;;;;;;;;;;5089840;27;20804;-61
2023/07/10 11:59:37;;;;;;;3.03;1.33;;;;;;;;;;5089010;27;20040;-61
2023/07/10 12:02:17;;;;;;;5.22;1.17;;;;;;;;;;5089658;27;20040;-61
2023/07/10 12:04:43;;;;;;;3.03;1.02;;;;;;;;;;5089262;27;20228;-61
2023/07/10 12:07:11;;;;;;;3.42;1.42;;;;;;;;;;5088940;27;20042;-61
2023/07/10 12:09:37;;;;;;;6.50;1.20;;;;;;;;;;5088891;27;20201;-61
2023/07/10 12:12:03;;;;;;;2.08;1.25;;;;;;;;;;5087734;27;20044;-61
2023/07/10 12:14:30;;;;;;;3.65;1.40;;;;;;;;;;5089598;27;20046;-61
2023/07/10 12:16:58;;;;;;;3.25;1.10;;;;;;;;;;5089302;27;20042;-60
2023/07/10 12:19:26;;;;;;;2.22;1.27;;;;;;;;;;5089260;27;20127;-61
2023/07/10 12:21:53;;;;;;;5.25;1.50;;;;;;;;;;5089490;27;20040;-60
2023/07/10 12:24:22;;;;;;;4.47;1.52;;;;;;;;;;5088720;27;20119;-61
2023/07/10 12:26:55;;;;;;;4.38;1.42;;;;;;;;;;5088416;27;20040;-61
2023/07/10 12:29:21;;;;;;;5.63;1.25;;;;;;;;;;5089051;27;20060;-61
2023/07/10 12:31:47;;;;;;;4.97;1.95;;;;;;;;;;5097821;27;20044;-61
2023/07/10 12:34:24;;;;;;;2.80;1.40;;;;;;;;;;5092685;27;20039;-61
2023/07/10 12:36:51;;;;;;;4.35;1.05;;;;;;;;;;5092966;27;20130;-61
2023/07/10 12:39:18;;;;;;;3.42;1.00;;;;;;;;;;5092178;27;20043;-61
2023/07/10 12:41:47;;;;;;;3.45;1.20;;;;;;;;;;5092655;27;20040;-61
2023/07/10 12:44:24;;;;;;;6.35;1.48;;;;;;;;;;5092607;27;20801;-61
2023/07/10 12:47:04;;;;;;;2.15;1.10;;;;;;;;;;5092840;27;20055;-61
2023/07/10 12:49:31;;;;;;;3.22;1.40;;;;;;;;;;5093463;27;20546;-61
2023/07/10 12:51:58;;;;;;;2.08;1.17;;;;;;;;;;5091950;27;20122;-61
2023/07/10 12:54:28;;;;;;;4.95;1.55;;;;;;;;;;5097523;27;20051;-61
2023/07/10 12:56:55;;;;;;;3.47;1.50;;;;;;;;;;5092104;27;20048;-61
2023/07/10 12:59:28;;;;;;;3.42;1.20;;;;;;;;;;5092105;27;20043;-61
2023/07/10 13:02:02;;;;;;;5.55;1.27;;;;;;;;;;5092335;27;20051;-61
2023/07/10 13:04:31;;;;;;;2.80;1.25;;;;;;;;;;5092697;27;20052;-61
2023/07/10 13:07:12;;;;;;;3.20;1.05;;;;;;;;;;5092016;27;20586;-61
2023/07/10 13:09:39;;;;;;;3.05;2.08;;;;;;;;;;5091694;27;20123;-61
2023/07/10 13:12:07;;;;;;;4.13;1.02;;;;;;;;;;5091601;27;20182;-61
2023/07/10 13:14:36;;;;;;;3.72;1.40;;;;;;;;;;5092383;27;20106;-61
2023/07/10 13:17:02;;;;;;;3.70;1.40;;;;;;;;;;5091887;27;20037;-61
2023/07/10 13:19:28;;;;;;;2.33;1.50;;;;;;;;;;5092514;27;20150;-61
2023/07/10 13:21:54;;;;;;;3.90;1.30;;;;;;;;;;5091310;27;20032;-61
2023/07/10 13:24:20;;;;;;;2.70;1.40;;;;;;;;;;5092673;27;20139;-61
2023/07/10 13:26:47;;;;;;;4.47;1.25;;;;;;;;;;5091415;27;20086;-61
2023/07/10 13:29:14;;;;;;;2.97;1.35;;;;;;;;;;5092533;27;20089;-61
2023/07/10 13:31:40;;;;;;;5.35;1.60;;;;;;;;;;5089998;27;20036;-61
2023/07/10 13:34:08;;;;;;;3.17;1.40;;;;;;;;;;5091411;27;20044;-61
2023/07/10 13:36:34;;;;;;;4.85;1.55;;;;;;;;;;5091762;27;20136;-61
2023/07/10 13:39:00;;;;;;;3.17;1.10;;;;;;;;;;5092513;27;20118;-61
2023/07/10 13:41:28;;;;;;;2.70;1.02;;;;;;;;;;5094974;27;20048;-61
2023/07/10 13:43:54;;;;;;;3.35;1.10;;;;;;;;;;5091265;27;20044;-61
2023/07/10 13:46:26;;;;;;;1.73;0.88;;;;;;;;;;5090102;27;20582;-61
2023/07/10 13:48:53;;;;;;;2.70;1.30;;;;;;;;;;5091537;27;20064;-61
2023/07/10 13:51:20;;;;;;;4.43;1.30;;;;;;;;;;5090984;27;20036;-61
2023/07/10 13:53:46;;;;;;;2.85;0.82;;;;;;;;;;5091886;27;20128;-61
2023/07/10 13:56:14;;;;;;;2.03;1.02;;;;;;;;;;5089672;27;20044;-60
2023/07/10 13:58:40;;;;;;;2.25;1.00;;;;;;;;;;5091405;27;20595;-61
2023/07/10 14:01:06;;;;;;;2.47;1.20;;;;;;;;;;5095927;27;20051;-61
2023/07/10 14:03:35;;;;;;;4.18;1.75;;;;;;;;;;5091213;27;20044;-61
2023/07/10 14:06:01;;;;;;;2.92;1.30;;;;;;;;;;5091350;27;20048;-61
2023/07/10 14:08:29;;;;;;;5.80;1.85;;;;;;;;;;5090424;27;20032;-61
2023/07/10 14:10:57;;;;;;;3.33;0.85;;;;;;;;;;5090818;27;20087;-61
2023/07/10 14:13:23;;;;;;;1.48;0.90;;;;;;;;;;5091084;27;20905;-61
2023/07/10 14:16:12;;;;;;;2.40;1.10;;;;;;;;;;5091245;27;20040;-61
2023/07/10 14:18:38;;;;;;;2.45;0.93;;;;;;;;;;5091296;27;20336;-61
2023/07/10 14:21:04;;;;;;;2.10;1.42;;;;;;;;;;5091150;27;20515;-61
2023/07/10 14:23:30;;;;;;;5.50;1.20;;;;;;;;;;5089566;27;20044;-61
2023/07/10 14:25:56;;;;;;;3.53;1.27;;;;;;;;;;5090249;27;20083;-61
2023/07/10 14:28:24;;;;;;;5.15;1.30;;;;;;;;;;5078869;27;20040;-61
2023/07/10 14:30:50;;;;;;;3.45;1.00;;;;;;;;;;5090576;27;20041;-61
2023/07/10 14:33:16;;;;;;;8.13;1.77;;;;;;;;;;5090363;27;20603;-61
2023/07/10 14:35:43;;;;;;;3.20;1.50;;;;;;;;;;5090704;27;20036;-61
2023/07/10 14:38:22;;;;;;;5.78;1.60;;;;;;;;;;5091030;27;20478;-60
2023/07/10 14:40:49;;;;;;;4.85;1.38;;;;;;;;;;5089913;27;20040;-61
2023/07/10 14:43:15;;;;;;;3.40;1.20;;;;;;;;;;5089177;27;20749;-61
2023/07/10 14:45:48;;;;;;;3.30;1.48;;;;;;;;;;5091572;27;20105;-61
2023/07/10 14:48:17;;;;;;;3.53;1.00;;;;;;;;;;5089728;27;20070;-61